Time;durP1;ratioP1;P1;durP2;ratioP2;P2;SDS_P1;SDS_P2;PMS_P1;PMS_P2;Temp;Humidity;BMP_temperature;BMP_pressure;BME280_temperature;BME280_humidity;BME280_pressure;Samples;Min_cycle;Max_cycle;Signal;HPM_P1;HPM_P2
2022/07/25 00:00:09;;;;;;;5.60;4.50;;;;;;;15.91;100.00;100225.41;4197379;28;27318;-61
2022/07/25 00:02:36;;;;;;;7.00;4.53;;;;;;;15.83;100.00;100219.09;4199727;28;22306;-59
2022/07/25 00:05:03;;;;;;;7.03;4.70;;;;;;;15.74;100.00;100214.03;4196221;28;20232;-60
2022/07/25 00:07:30;;;;;;;6.77;4.87;;;;;;;15.71;100.00;100214.38;4184780;28;21536;-61
2022/07/25 00:09:56;;;;;;;6.53;4.87;;;;;;;15.70;100.00;100221.59;4204701;28;20234;-62
2022/07/25 00:12:23;;;;;;;8.73;5.37;;;;;;;15.70;100.00;100212.69;4196323;28;20244;-62
2022/07/25 00:14:49;;;;;;;7.23;4.80;;;;;;;15.76;100.00;100215.50;4192580;28;20246;-59
2022/07/25 00:17:16;;;;;;;7.70;5.10;;;;;;;15.75;100.00;100211.13;4199193;28;20245;-61
2022/07/25 00:19:43;;;;;;;6.83;5.30;;;;;;;15.68;100.00;100209.34;4197847;28;22132;-60
2022/07/25 00:22:09;;;;;;;6.37;4.77;;;;;;;15.62;100.00;100211.75;4199402;28;20764;-58
2022/07/25 00:24:36;;;;;;;7.20;5.60;;;;;;;15.68;100.00;100207.50;4198052;28;20272;-62
2022/07/25 00:27:02;;;;;;;7.00;5.10;;;;;;;15.66;100.00;100200.63;4199647;28;20240;-62
2022/07/25 00:29:29;;;;;;;7.70;5.73;;;;;;;15.67;100.00;100191.59;4195055;28;20242;-60
2022/07/25 00:31:56;;;;;;;6.10;4.77;;;;;;;15.61;100.00;100193.97;4196574;28;20237;-59
2022/07/25 00:34:22;;;;;;;16.83;5.50;;;;;;;15.59;100.00;100182.63;4200671;28;20244;-60
2022/07/25 00:36:49;;;;;;;5.77;4.80;;;;;;;15.55;100.00;100178.63;4196056;28;22124;-61
2022/07/25 00:39:15;;;;;;;8.40;5.30;;;;;;;15.51;100.00;100173.81;4194901;28;22080;-58
2022/07/25 00:41:43;;;;;;;7.40;5.23;;;;;;;15.51;100.00;100176.50;4197587;28;22289;-62
2022/07/25 00:44:26;;;;;;;9.13;5.47;;;;;;;15.49;100.00;100176.69;4198594;28;20224;-60
2022/07/25 00:46:54;;;;;;;13.67;5.70;;;;;;;15.42;100.00;100175.75;4196758;28;20260;-60
2022/07/25 00:49:21;;;;;;;11.33;5.80;;;;;;;15.41;100.00;100184.81;4197904;28;20290;-61
2022/07/25 00:51:48;;;;;;;7.40;5.83;;;;;;;15.48;100.00;100193.78;4195096;28;20309;-61
2022/07/25 00:54:15;;;;;;;8.00;5.53;;;;;;;15.46;100.00;100195.00;4190399;28;20233;-62
2022/07/25 00:56:42;;;;;;;6.87;5.57;;;;;;;15.47;100.00;100202.84;4200569;28;20233;-63
2022/07/25 00:59:09;;;;;;;6.00;5.30;;;;;;;15.50;100.00;100191.75;4194859;28;20395;-61
2022/07/25 01:01:37;;;;;;;7.80;5.30;;;;;;;15.46;100.00;100189.63;4201331;28;20620;-63
2022/07/25 01:04:05;;;;;;;9.43;6.10;;;;;;;15.34;100.00;100197.28;4198453;28;20301;-61
2022/07/25 01:06:33;;;;;;;10.10;5.60;;;;;;;15.27;100.00;100199.03;4203724;28;20295;-61
2022/07/25 01:09:00;;;;;;;7.70;5.70;;;;;;;15.19;100.00;100194.56;4197436;28;20609;-60
2022/07/25 01:11:27;;;;;;;8.10;5.63;;;;;;;15.25;100.00;100206.41;4195215;28;20234;-62
2022/07/25 01:13:53;;;;;;;9.40;5.67;;;;;;;15.23;100.00;100192.34;4197299;28;20228;-61
2022/07/25 01:16:20;;;;;;;10.43;5.63;;;;;;;15.17;100.00;100188.53;4185049;28;20469;-61
2022/07/25 01:18:46;;;;;;;6.53;5.17;;;;;;;15.13;100.00;100185.41;4194741;28;22988;-60
2022/07/25 01:21:13;;;;;;;9.17;5.80;;;;;;;15.09;100.00;100189.44;4198715;28;20241;-61
2022/07/25 01:23:40;;;;;;;7.63;5.70;;;;;;;15.02;100.00;100177.78;4194601;28;26222;-62
2022/07/25 01:26:07;;;;;;;9.50;6.77;;;;;;;14.96;100.00;100183.84;4196569;28;20229;-61
2022/07/25 01:28:33;;;;;;;11.30;6.30;;;;;;;15.04;100.00;100185.66;4193206;28;20236;-60
2022/07/25 01:31:00;;;;;;;9.50;6.00;;;;;;;15.07;100.00;100186.09;4199793;28;20237;-64
2022/07/25 01:33:26;;;;;;;9.50;6.13;;;;;;;15.04;100.00;100183.81;4196491;28;25414;-60
2022/07/25 01:35:53;;;;;;;7.73;6.13;;;;;;;15.04;100.00;100185.66;4201836;28;20235;-61
2022/07/25 01:38:19;;;;;;;11.47;6.33;;;;;;;14.98;100.00;100177.31;4197112;28;20234;-61
2022/07/25 01:40:46;;;;;;;9.90;5.90;;;;;;;14.96;100.00;100182.03;4197912;28;21751;-63
2022/07/25 01:43:13;;;;;;;8.87;6.60;;;;;;;14.91;100.00;100180.88;4192629;28;21171;-61
2022/07/25 01:45:39;;;;;;;10.07;6.10;;;;;;;14.88;100.00;100181.25;4194975;28;21049;-59
2022/07/25 01:48:06;;;;;;;9.30;6.80;;;;;;;14.80;100.00;100183.97;4197747;28;20237;-61
2022/07/25 01:50:32;;;;;;;12.73;7.67;;;;;;;14.69;100.00;100188.75;4200612;28;20558;-63
2022/07/25 01:52:59;;;;;;;9.73;6.83;;;;;;;14.63;100.00;100184.09;4190482;28;25509;-59
2022/07/25 01:55:25;;;;;;;15.53;7.10;;;;;;;14.58;100.00;100186.47;4193159;28;20232;-61
2022/07/25 01:57:54;;;;;;;9.17;6.67;;;;;;;14.56;100.00;100188.50;4196893;28;20233;-61
2022/07/25 02:00:21;;;;;;;10.33;7.20;;;;;;;14.55;100.00;100176.13;4194025;28;20240;-61
2022/07/25 02:03:28;;;;;;;8.67;6.33;;;;;;;14.49;100.00;100179.47;4193639;28;20266;-58
2022/07/25 02:05:35;;;;;;;14.47;8.27;;;;;;;14.48;100.00;100183.16;4198363;28;21711;-59
2022/07/25 02:08:02;;;;;;;11.67;8.70;;;;;;;14.47;100.00;100176.13;4197824;28;20339;-63
2022/07/25 02:10:29;;;;;;;11.40;7.90;;;;;;;14.44;100.00;100173.81;4180122;28;22985;-61
2022/07/25 02:12:56;;;;;;;10.13;7.87;;;;;;;14.48;100.00;100169.78;4199786;28;21831;-61
2022/07/25 02:15:22;;;;;;;10.73;8.47;;;;;;;14.44;100.00;100169.28;4198142;28;21069;-61
2022/07/25 02:17:49;;;;;;;12.23;8.27;;;;;;;14.51;100.00;100166.75;4188418;28;20231;-62
2022/07/25 02:20:15;;;;;;;9.30;7.13;;;;;;;14.54;100.00;100174.47;4192292;28;22286;-61
2022/07/25 02:22:42;;;;;;;11.93;8.60;;;;;;;14.56;100.00;100178.63;4196207;28;20433;-59
2022/07/25 02:25:08;;;;;;;12.73;7.73;;;;;;;14.56;100.00;100170.59;4199649;28;20747;-58
2022/07/25 02:27:35;;;;;;;13.47;9.10;;;;;;;14.57;100.00;100169.56;4194699;28;21114;-61
2022/07/25 02:30:01;;;;;;;13.00;8.83;;;;;;;14.55;100.00;100171.59;4196792;28;20241;-60
2022/07/25 02:32:28;;;;;;;13.80;8.90;;;;;;;14.55;100.00;100176.13;4198206;28;20315;-59
2022/07/25 02:34:54;;;;;;;12.53;8.00;;;;;;;14.55;100.00;100176.13;4185904;28;20237;-60
2022/07/25 02:37:21;;;;;;;13.50;9.17;;;;;;;14.57;100.00;100172.25;4203461;28;20677;-60
2022/07/25 02:39:47;;;;;;;13.23;9.10;;;;;;;14.50;100.00;100173.94;4195760;28;20232;-62
2022/07/25 02:42:14;;;;;;;12.07;8.87;;;;;;;14.57;100.00;100174.94;4197199;28;20738;-61
2022/07/25 02:44:40;;;;;;;15.50;8.53;;;;;;;14.60;100.00;100175.59;4197876;28;21160;-61
2022/07/25 02:47:07;;;;;;;12.43;9.30;;;;;;;14.72;100.00;100172.31;4201295;28;20239;-45
2022/07/25 02:49:33;;;;;;;13.57;8.77;;;;;;;14.76;100.00;100178.97;4194144;28;20229;-47
2022/07/25 02:52:00;;;;;;;13.40;9.10;;;;;;;14.74;100.00;100182.84;4199885;28;20302;-47
2022/07/25 02:54:26;;;;;;;16.50;10.30;;;;;;;14.71;100.00;100181.38;4200892;28;21203;-46
2022/07/25 02:56:53;;;;;;;14.53;8.93;;;;;;;14.76;100.00;100183.50;4201130;28;20239;-47
2022/07/25 02:59:19;;;;;;;14.07;8.73;;;;;;;14.81;100.00;100186.50;4179387;28;20245;-47
2022/07/25 03:01:46;;;;;;;15.73;9.57;;;;;;;14.72;100.00;100188.38;4207980;28;20404;-45
2022/07/25 03:04:12;;;;;;;11.57;8.80;;;;;;;14.76;100.00;100189.69;4209922;28;25978;-63
2022/07/25 03:06:41;;;;;;;15.23;9.20;;;;;;;14.87;100.00;100185.78;4211429;28;20245;-60
2022/07/25 03:09:08;;;;;;;12.07;8.60;;;;;;;14.90;100.00;100189.94;4226549;28;22316;-61
2022/07/25 03:11:34;;;;;;;12.80;9.07;;;;;;;15.10;100.00;100180.41;4209973;28;20327;-63
2022/07/25 03:14:02;;;;;;;17.10;9.63;;;;;;;14.97;100.00;100177.50;4205062;28;20252;-65
2022/07/25 03:16:30;;;;;;;11.17;8.10;;;;;;;15.05;100.00;100182.78;4206311;28;20229;-62
2022/07/25 03:18:56;;;;;;;10.77;8.40;;;;;;;15.03;100.00;100174.09;4214371;28;21062;-63
2022/07/25 03:21:23;;;;;;;11.63;8.13;;;;;;;15.07;100.00;100179.91;4206663;28;20256;-64
2022/07/25 03:23:50;;;;;;;10.43;7.87;;;;;;;15.04;100.00;100180.28;4192012;28;22415;-63
2022/07/25 03:26:18;;;;;;;13.10;9.00;;;;;;;15.03;100.00;100178.59;4233632;28;21171;-63
2022/07/25 03:28:45;;;;;;;13.47;8.33;;;;;;;15.06;100.00;100184.47;4219754;28;20234;-64
2022/07/25 03:31:11;;;;;;;13.77;9.53;;;;;;;15.04;100.00;100169.56;4202085;28;20375;-59
2022/07/25 03:33:38;;;;;;;13.83;8.37;;;;;;;15.12;100.00;100175.69;4211949;28;21635;-62
2022/07/25 03:36:05;;;;;;;12.87;9.10;;;;;;;15.18;100.00;100176.81;4219219;28;20237;-61
2022/07/25 03:38:31;;;;;;;12.90;9.23;;;;;;;15.25;100.00;100177.75;4194304;28;20235;-64
2022/07/25 03:40:58;;;;;;;11.73;8.23;;;;;;;15.34;100.00;100175.84;4213178;28;21161;-61
2022/07/25 03:43:24;;;;;;;13.60;9.10;;;;;;;15.44;100.00;100170.22;4215786;28;20295;-60
2022/07/25 03:45:51;;;;;;;16.67;9.90;;;;;;;15.43;100.00;100173.88;4218512;28;20302;-62
2022/07/25 03:48:18;;;;;;;13.87;8.57;;;;;;;15.46;100.00;100171.69;4205772;28;22017;-61
2022/07/25 03:50:44;;;;;;;13.23;8.50;;;;;;;15.49;100.00;100179.34;4218584;28;20237;-60
2022/07/25 03:53:12;;;;;;;11.63;8.10;;;;;;;15.52;100.00;100179.00;4211352;28;20348;-62
2022/07/25 03:55:39;;;;;;;14.77;9.93;;;;;;;15.58;100.00;100182.78;4197286;28;20624;-61
2022/07/25 03:58:05;;;;;;;15.03;8.20;;;;;;;15.62;100.00;100184.09;4214308;28;20232;-61
2022/07/25 04:00:32;;;;;;;11.67;9.30;;;;;;;15.75;100.00;100183.47;4213923;28;20794;-65
2022/07/25 04:02:59;;;;;;;16.30;10.40;;;;;;;15.78;100.00;100178.59;4197802;28;26657;-61
2022/07/25 04:05:26;;;;;;;13.17;8.60;;;;;;;15.89;100.00;100184.50;4204925;28;25660;-61
2022/07/25 04:07:52;;;;;;;16.30;9.50;;;;;;;15.89;100.00;100179.94;4201148;28;20460;-61
2022/07/25 04:10:19;;;;;;;20.97;10.07;;;;;;;15.94;100.00;100169.47;4215472;28;21774;-62
2022/07/25 04:12:45;;;;;;;12.10;9.30;;;;;;;16.12;100.00;100174.47;4194160;28;20229;-62
2022/07/25 04:15:12;;;;;;;15.33;8.80;;;;;;;16.21;100.00;100172.53;4194123;28;25721;-60
2022/07/25 04:17:39;;;;;;;24.30;10.33;;;;;;;16.30;98.93;100181.31;4200797;28;20233;-62
2022/07/25 04:20:06;;;;;;;14.40;9.27;;;;;;;16.41;98.67;100184.34;4203449;28;20245;-63
2022/07/25 04:22:33;;;;;;;15.07;8.93;;;;;;;16.54;97.84;100177.44;4200127;28;20232;-61
2022/07/25 04:24:59;;;;;;;18.57;8.73;;;;;;;16.61;96.57;100183.72;4205858;28;20262;-62
2022/07/25 04:27:26;;;;;;;15.97;9.00;;;;;;;16.75;95.45;100182.81;4202490;28;23564;-64
2022/07/25 04:29:52;;;;;;;13.20;8.03;;;;;;;16.80;95.51;100183.09;4191510;28;20238;-61
2022/07/25 04:32:19;;;;;;;12.30;7.87;;;;;;;16.83;95.53;100190.81;4200682;28;21174;-60
2022/07/25 04:34:50;;;;;;;13.57;8.50;;;;;;;16.95;94.59;100184.88;4186779;28;20245;-63
2022/07/25 04:37:16;;;;;;;9.47;6.87;;;;;;;17.05;93.92;100185.41;4211377;28;21745;-63
2022/07/25 04:39:43;;;;;;;12.30;8.27;;;;;;;17.12;93.03;100178.22;4203371;28;21175;-62
2022/07/25 04:42:10;;;;;;;15.63;8.23;;;;;;;17.14;92.46;100184.25;4211584;28;20233;-62
2022/07/25 04:44:36;;;;;;;13.93;8.40;;;;;;;17.18;91.93;100184.69;4203394;28;20263;-61
2022/07/25 04:47:03;;;;;;;14.10;8.53;;;;;;;17.28;91.99;100186.03;4192048;28;20330;-60
2022/07/25 04:49:30;;;;;;;12.47;8.53;;;;;;;17.30;91.14;100181.28;4200791;28;21142;-60
2022/07/25 04:51:56;;;;;;;14.90;8.03;;;;;;;17.35;90.83;100186.06;4195044;28;20573;-58
2022/07/25 04:54:23;;;;;;;13.23;7.60;;;;;;;17.40;90.02;100183.63;4191051;28;20244;-61
2022/07/25 04:56:49;;;;;;;10.70;7.30;;;;;;;17.56;89.42;100184.34;4196135;28;21002;-60
2022/07/25 04:59:16;;;;;;;13.13;7.13;;;;;;;17.70;89.16;100184.25;4198707;28;21228;-63
2022/07/25 05:01:42;;;;;;;11.03;7.57;;;;;;;17.78;88.17;100190.50;4196001;28;21767;-64
2022/07/25 05:04:09;;;;;;;12.40;7.30;;;;;;;17.76;88.65;100188.00;4198859;28;20236;-60
2022/07/25 05:06:36;;;;;;;9.40;7.17;;;;;;;17.72;88.79;100182.19;4208783;28;20626;-62
2022/07/25 05:09:03;;;;;;;11.70;7.53;;;;;;;17.79;88.34;100165.22;4199260;28;20237;-60
2022/07/25 05:11:29;;;;;;;14.90;7.73;;;;;;;17.83;87.94;100177.31;4208636;28;20273;-62
2022/07/25 05:13:56;;;;;;;15.07;7.40;;;;;;;17.96;87.78;100176.53;4196862;28;21823;-61
2022/07/25 05:16:22;;;;;;;16.33;7.10;;;;;;;18.06;86.80;100172.44;4206118;28;20649;-61
2022/07/25 05:18:49;;;;;;;11.73;5.67;;;;;;;18.16;83.52;100176.63;4213385;28;20422;-62
2022/07/25 05:21:16;;;;;;;8.47;4.83;;;;;;;18.35;80.24;100181.25;4226956;28;21320;-61
2022/07/25 05:23:43;;;;;;;11.83;4.20;;;;;;;18.39;78.32;100179.81;4209414;28;20749;-62
2022/07/25 05:26:09;;;;;;;5.20;3.40;;;;;;;18.44;76.89;100166.56;4197163;28;20241;-61
2022/07/25 05:28:36;;;;;;;8.47;3.63;;;;;;;18.54;75.34;100166.16;4199230;28;20241;-60
2022/07/25 05:31:03;;;;;;;4.47;3.10;;;;;;;18.59;75.33;100168.25;4183958;28;22713;-60
2022/07/25 05:33:29;;;;;;;5.87;3.23;;;;;;;18.72;75.35;100168.28;4195942;28;20237;-62
2022/07/25 05:35:56;;;;;;;7.80;3.57;;;;;;;18.76;74.90;100166.84;4188018;28;21139;-62
2022/07/25 05:38:22;;;;;;;5.13;3.27;;;;;;;18.95;73.90;100166.06;4198657;28;20245;-63
2022/07/25 05:40:50;;;;;;;7.03;4.07;;;;;;;19.10;72.84;100156.94;4205104;28;20255;-61
2022/07/25 05:43:18;;;;;;;6.17;3.40;;;;;;;19.27;73.28;100163.59;4199410;28;21489;-63
2022/07/25 05:45:46;;;;;;;7.17;3.53;;;;;;;19.53;72.05;100157.31;4200227;28;20232;-61
2022/07/25 05:48:14;;;;;;;9.57;3.80;;;;;;;20.08;69.76;100170.47;4203477;28;20368;-62
2022/07/25 05:50:40;;;;;;;5.27;3.50;;;;;;;20.72;67.12;100170.59;4197158;28;20237;-63
2022/07/25 05:53:07;;;;;;;8.50;3.10;;;;;;;21.27;64.77;100168.91;4191418;28;20336;-62
2022/07/25 05:55:33;;;;;;;6.53;3.97;;;;;;;22.07;61.83;100172.69;4202179;28;20546;-64
2022/07/25 05:58:05;;;;;;;5.33;2.57;;;;;;;22.83;59.93;100181.28;4186366;28;20232;-60
2022/07/25 06:00:32;;;;;;;6.13;3.40;;;;;;;23.96;55.02;100192.97;4198038;28;21112;-61
2022/07/25 06:02:59;;;;;;;5.17;3.13;;;;;;;24.42;51.75;100189.31;4207689;28;20299;-62
2022/07/25 06:05:26;;;;;;;8.97;3.40;;;;;;;25.04;49.28;100199.44;4192305;28;20767;-62
2022/07/25 06:07:53;;;;;;;9.13;3.73;;;;;;;25.66;47.15;100192.22;4201185;28;20712;-61
2022/07/25 06:10:20;;;;;;;7.93;3.00;;;;;;;26.25;46.01;100200.69;4212738;28;20293;-62
2022/07/25 06:12:46;;;;;;;8.37;3.30;;;;;;;27.24;43.59;100206.91;4201038;28;20243;-61
2022/07/25 06:15:13;;;;;;;6.10;3.07;;;;;;;27.85;40.89;100211.16;4207356;28;22531;-62
2022/07/25 06:17:48;;;;;;;6.57;3.37;;;;;;;27.89;39.81;100212.28;4197243;28;21901;-65
2022/07/25 06:20:14;;;;;;;8.50;3.50;;;;;;;27.37;40.89;100200.19;4237397;28;20243;-64
2022/07/25 06:22:41;;;;;;;6.47;3.17;;;;;;;28.47;39.11;100196.69;4202798;28;20653;-63
2022/07/25 06:25:08;;;;;;;12.00;3.13;;;;;;;29.11;36.93;100200.09;4200714;28;20236;-64
2022/07/25 06:27:36;;;;;;;11.47;3.10;;;;;;;29.46;36.93;100202.78;4206136;28;21087;-64
2022/07/25 06:30:04;;;;;;;6.28;3.25;;;;;;;30.44;34.82;100203.34;4217077;28;20571;-64
2022/07/25 06:32:36;;;;;;;6.88;2.75;;;;;;;30.09;34.67;100194.16;4204328;28;20229;-63
2022/07/25 06:35:03;;;;;;;8.90;3.47;;;;;;;30.26;34.66;100191.06;4228585;28;20236;-64
2022/07/25 06:37:29;;;;;;;7.07;3.30;;;;;;;30.33;35.31;100192.69;4199545;28;21243;-64
2022/07/25 06:39:56;;;;;;;7.75;3.00;;;;;;;31.49;32.93;100192.97;4203588;28;20237;-64
2022/07/25 06:42:24;;;;;;;6.30;3.10;;;;;;;31.27;31.84;100189.84;4204079;28;20258;-62
2022/07/25 06:44:50;;;;;;;6.53;2.90;;;;;;;31.80;31.68;100187.13;4215916;28;20317;-65
2022/07/25 06:47:17;;;;;;;4.78;2.95;;;;;;;32.49;29.97;100192.31;4213373;28;20235;-64
2022/07/25 06:49:43;;;;;;;11.10;3.00;;;;;;;33.08;29.15;100184.56;4213449;28;20233;-63
2022/07/25 06:52:10;;;;;;;5.75;2.97;;;;;;;33.62;27.77;100186.66;4205803;28;21840;-64
2022/07/25 06:54:36;;;;;;;5.88;2.90;;;;;;;33.91;26.39;100195.78;4232622;28;20232;-64
2022/07/25 06:57:03;;;;;;;5.65;2.50;;;;;;;32.37;28.27;100181.75;4215541;28;20864;-63
2022/07/25 06:59:30;;;;;;;4.43;2.45;;;;;;;32.38;28.74;100181.47;4197349;28;20614;-63
2022/07/25 07:01:57;;;;;;;6.85;2.40;;;;;;;33.09;28.09;100181.53;4201716;28;20250;-65
2022/07/25 07:04:23;;;;;;;4.55;2.40;;;;;;;33.61;27.07;100185.03;4199314;28;20294;-63
2022/07/25 07:06:50;;;;;;;3.88;2.30;;;;;;;34.04;26.72;100181.97;4190346;28;20287;-65
2022/07/25 07:09:16;;;;;;;4.38;2.28;;;;;;;34.23;25.48;100189.31;4203994;28;23550;-62
2022/07/25 07:11:43;;;;;;;6.43;4.03;;;;;;;34.55;24.58;100185.56;4198260;28;20241;-63
2022/07/25 07:14:10;;;;;;;3.53;1.90;;;;;;;35.97;23.43;100193.31;4194981;28;20287;-62
2022/07/25 07:16:36;;;;;;;5.07;2.28;;;;;;;36.05;22.56;100198.03;4202762;28;20229;-64
2022/07/25 07:19:03;;;;;;;3.22;1.80;;;;;;;34.75;23.38;100189.81;4218065;28;20697;-64
2022/07/25 07:21:30;;;;;;;3.78;1.73;;;;;;;34.83;23.03;100186.28;4211416;28;21096;-64
2022/07/25 07:23:57;;;;;;;4.82;1.55;;;;;;;34.42;23.91;100170.66;4194656;28;20247;-65
2022/07/25 07:26:23;;;;;;;3.13;1.63;;;;;;;31.87;26.84;100165.59;4203881;28;20606;-64
2022/07/25 07:28:53;;;;;;;5.50;2.10;;;;;;;29.72;31.47;100138.88;4195058;28;20296;-63
2022/07/25 07:31:19;;;;;;;5.18;2.15;;;;;;;28.57;34.83;100125.53;4217426;28;21101;-64
2022/07/25 07:33:46;;;;;;;3.13;2.00;;;;;;;30.17;32.10;100123.28;4222118;28;20256;-64
2022/07/25 07:36:13;;;;;;;2.97;1.63;;;;;;;31.61;29.26;100150.47;4208445;28;20762;-63
2022/07/25 07:38:40;;;;;;;4.65;2.03;;;;;;;32.09;27.94;100153.22;4206394;28;21033;-63
2022/07/25 07:41:07;;;;;;;2.88;1.83;;;;;;;31.96;27.44;100152.84;4241881;28;20304;-63
2022/07/25 07:43:34;;;;;;;8.27;2.10;;;;;;;30.59;29.74;100138.44;4213826;28;23431;-64
2022/07/25 07:46:01;;;;;;;4.53;2.42;;;;;;;29.66;31.84;100124.31;4194632;28;20536;-63
2022/07/25 07:48:29;;;;;;;2.30;1.80;;;;;;;28.56;33.46;100112.91;4203142;28;20323;-65
2022/07/25 07:50:56;;;;;;;2.87;2.10;;;;;;;27.61;34.26;100115.06;4210528;28;20243;-65
2022/07/25 07:55:42;;;;;;;3.67;2.55;;;;;;;27.68;34.66;100108.25;4200846;28;20240;-64
2022/07/25 07:56:10;;;;;;;3.28;1.83;;;;;;;28.07;33.59;100113.31;4200281;28;20248;-64
2022/07/25 07:58:37;;;;;;;6.47;2.47;;;;;;;28.37;32.79;100119.97;4211436;28;20236;-64
2022/07/25 08:01:04;;;;;;;5.78;1.90;;;;;;;28.30;31.96;100109.28;4206196;28;20323;-64
2022/07/25 08:03:31;;;;;;;2.40;1.65;;;;;;;28.31;32.54;100112.88;4204249;28;20308;-64
2022/07/25 08:05:58;;;;;;;4.37;1.90;;;;;;;27.94;32.61;100100.19;4206946;28;20236;-64
2022/07/25 08:08:25;;;;;;;8.55;2.00;;;;;;;28.04;34.08;100093.91;4208129;28;20237;-65
2022/07/25 08:10:57;;;;;;;3.85;2.15;;;;;;;27.96;34.05;100100.72;4198153;28;20309;-66
2022/07/25 08:13:28;;;;;;;3.15;2.03;;;;;;;27.87;34.23;100094.13;4198807;28;20326;-66
2022/07/25 08:15:57;;;;;;;3.53;2.20;;;;;;;27.13;35.23;100095.88;4209666;28;20329;-65
2022/07/25 08:18:26;;;;;;;4.90;2.40;;;;;;;27.05;35.98;100099.09;4214912;28;20326;-66
2022/07/25 08:20:52;;;;;;;4.23;2.43;;;;;;;26.95;36.42;100092.50;4205176;28;21741;-66
2022/07/25 08:23:19;;;;;;;6.18;2.00;;;;;;;27.22;35.05;100094.31;4211281;28;21988;-66
2022/07/25 08:25:46;;;;;;;3.70;2.10;;;;;;;27.53;34.45;100091.75;4205901;28;20339;-65
2022/07/25 08:28:13;;;;;;;5.10;1.83;;;;;;;27.53;34.34;100089.88;4213909;28;20234;-64
2022/07/25 08:30:42;;;;;;;5.90;2.37;;;;;;;27.67;34.48;100076.50;4213104;28;22122;-66
2022/07/25 08:33:12;;;;;;;4.80;2.60;;;;;;;27.45;34.52;100089.53;4197413;28;25968;-66
2022/07/25 08:35:40;;;;;;;3.22;1.92;;;;;;;26.55;36.98;100078.50;4206989;28;21645;-65
2022/07/25 08:38:10;;;;;;;7.10;2.33;;;;;;;26.86;36.33;100079.59;4243084;28;20240;-63
2022/07/25 08:40:37;;;;;;;7.07;2.90;;;;;;;27.05;35.85;100072.63;4204789;28;20242;-64
2022/07/25 08:43:03;;;;;;;8.23;2.35;;;;;;;26.68;36.08;100073.44;4204314;28;20233;-64
2022/07/25 08:45:32;;;;;;;3.15;2.30;;;;;;;26.60;36.54;100081.25;4194800;28;20533;-63
2022/07/25 08:47:58;;;;;;;3.67;2.40;;;;;;;26.64;36.97;100074.22;4195929;28;22140;-62
2022/07/25 08:50:27;;;;;;;3.70;2.10;;;;;;;26.80;36.19;100069.69;4200588;28;20260;-64
2022/07/25 08:52:54;;;;;;;4.93;2.03;;;;;;;26.84;35.76;100071.66;4214128;28;20240;-63
2022/07/25 08:55:43;;;;;;;4.30;2.50;;;;;;;26.83;36.36;100070.00;4204639;28;21344;-63
2022/07/25 08:58:15;;;;;;;7.33;2.20;;;;;;;26.62;35.66;100062.72;4209160;28;23992;-61
2022/07/25 09:00:42;;;;;;;6.33;2.37;;;;;;;25.91;37.82;100055.47;4206099;28;20304;-64
2022/07/25 09:03:09;;;;;;;6.25;2.00;;;;;;;26.30;38.33;100060.78;4190382;28;20233;-61
2022/07/25 09:05:36;;;;;;;3.57;2.20;;;;;;;26.56;37.20;100058.31;4211958;28;20836;-63
2022/07/25 09:08:11;;;;;;;4.07;2.10;;;;;;;26.40;36.49;100051.88;4206863;28;21750;-62
2022/07/25 09:10:38;;;;;;;5.97;2.33;;;;;;;26.08;37.38;100053.50;4181679;28;20233;-62
2022/07/25 09:13:09;;;;;;;4.10;2.37;;;;;;;26.05;37.49;100053.16;4196348;28;20309;-68
2022/07/25 09:15:37;;;;;;;2.87;2.07;;;;;;;26.09;37.50;100059.75;4200529;28;20311;-61
2022/07/25 09:18:06;;;;;;;5.10;2.37;;;;;;;26.22;36.88;100050.34;4205584;28;20303;-62
2022/07/25 09:20:42;;;;;;;5.63;2.27;;;;;;;26.35;37.41;100051.84;4176407;28;20259;-63
2022/07/25 09:23:11;;;;;;;7.43;2.17;;;;;;;26.36;36.69;100045.28;4203170;28;20254;-61
2022/07/25 09:25:38;;;;;;;3.43;2.27;;;;;;;26.20;38.97;100038.84;4196916;28;20233;-62
2022/07/25 09:28:12;;;;;;;5.73;2.40;;;;;;;26.18;38.15;100032.84;4193064;28;20231;-63
2022/07/25 09:30:40;;;;;;;4.07;2.10;;;;;;;26.21;39.01;100040.50;4195831;28;21223;-64
2022/07/25 09:33:06;;;;;;;4.10;1.97;;;;;;;26.26;40.01;100033.19;4195078;28;22801;-63
2022/07/25 09:35:37;;;;;;;4.87;2.50;;;;;;;26.43;37.65;100043.16;4191978;28;20244;-65
2022/07/25 09:38:12;;;;;;;8.03;2.20;;;;;;;26.07;38.27;100035.47;4189804;28;23029;-63
2022/07/25 09:40:40;;;;;;;6.67;2.57;;;;;;;26.16;38.17;100037.75;4194690;28;20226;-64
2022/07/25 09:43:07;;;;;;;3.53;2.30;;;;;;;26.33;37.41;100041.97;4192379;28;20247;-62
2022/07/25 09:45:33;;;;;;;3.67;2.03;;;;;;;26.19;38.09;100037.22;4191785;28;20240;-63
2022/07/25 09:48:02;;;;;;;4.83;2.20;;;;;;;25.89;37.83;100033.94;4202200;28;20232;-64
2022/07/25 09:50:31;;;;;;;5.73;2.20;;;;;;;26.01;38.88;100031.06;4197777;28;20240;-62
2022/07/25 09:53:01;;;;;;;3.27;2.20;;;;;;;26.05;37.49;100028.63;4193186;28;20236;-63
2022/07/25 09:55:29;;;;;;;4.90;2.27;;;;;;;25.67;38.31;100020.28;4195097;28;20257;-63
2022/07/25 09:57:55;;;;;;;7.07;2.30;;;;;;;25.52;38.46;100022.84;4200154;28;20530;-63
2022/07/25 10:00:25;;;;;;;6.97;2.50;;;;;;;25.47;39.28;100029.06;4177965;28;20236;-61
2022/07/25 10:02:54;;;;;;;6.07;2.63;;;;;;;25.34;40.16;100020.44;4193917;28;20237;-63
2022/07/25 10:05:35;;;;;;;4.17;2.80;;;;;;;25.45;39.90;100022.19;4196944;28;20232;-61
2022/07/25 10:08:06;;;;;;;3.13;2.20;;;;;;;25.38;39.75;100013.38;4202191;28;20311;-63
2022/07/25 10:10:37;;;;;;;4.13;2.30;;;;;;;25.59;42.30;100014.47;4212006;28;20311;-62
2022/07/25 10:13:28;;;;;;;5.67;2.17;;;;;;;25.79;40.58;100008.44;4211784;28;20339;-63
2022/07/25 10:15:54;;;;;;;5.33;2.63;;;;;;;26.16;38.81;100013.19;4202302;28;20316;-65
2022/07/25 10:18:25;;;;;;;8.77;2.30;;;;;;;25.86;39.17;100009.03;4181222;28;20267;-63
2022/07/25 10:21:06;;;;;;;3.78;2.10;;;;;;;25.68;40.03;100007.47;4192200;28;20902;-64
2022/07/25 10:23:58;;;;;;;6.13;2.03;;;;;;;25.55;39.16;100008.72;4207531;28;20318;-62
2022/07/25 10:26:25;;;;;;;5.03;2.30;;;;;;;25.63;38.20;100008.25;4192633;28;20262;-65
2022/07/25 10:28:52;;;;;;;12.57;2.50;;;;;;;25.64;38.73;99993.56;4196219;28;20232;-61
2022/07/25 10:31:22;;;;;;;4.40;2.20;;;;;;;25.58;39.51;99989.13;4196805;28;20240;-62
2022/07/25 10:33:55;;;;;;;2.83;2.13;;;;;;;25.34;38.90;99987.75;4202218;28;21464;-62
2022/07/25 10:36:22;;;;;;;3.90;2.03;;;;;;;25.57;38.92;99982.03;4200297;28;20300;-47
2022/07/25 10:38:56;;;;;;;6.63;2.10;;;;;;;25.47;40.52;99980.03;4196593;28;20657;-62
2022/07/25 10:41:25;;;;;;;2.97;2.00;;;;;;;25.72;37.75;99980.56;4194326;28;21285;-71
2022/07/25 10:43:56;;;;;;;5.83;2.30;;;;;;;25.87;38.12;99980.72;4219157;28;20281;-65
2022/07/25 10:46:25;;;;;;;3.87;2.00;;;;;;;25.80;37.61;99977.34;4204746;28;21767;-51
2022/07/25 10:48:59;;;;;;;4.57;2.27;;;;;;;25.82;37.34;99972.47;4198062;28;20228;-66
2022/07/25 10:51:28;;;;;;;3.72;2.30;;;;;;;25.40;38.90;99964.94;4199473;28;20311;-69
2022/07/25 10:53:55;;;;;;;5.15;2.40;;;;;;;25.46;40.02;99966.63;4205700;28;21725;-63
2022/07/25 10:56:25;;;;;;;3.70;2.50;;;;;;;25.73;40.09;99963.09;4200969;28;22952;-64
2022/07/25 10:58:53;;;;;;;6.30;2.70;;;;;;;25.51;41.05;99963.97;4198655;28;20361;-61
2022/07/25 11:01:26;;;;;;;7.82;2.50;;;;;;;25.39;41.79;99955.94;4197809;28;23354;-60
2022/07/25 11:03:54;;;;;;;5.90;2.47;;;;;;;25.51;42.46;99955.78;4223947;28;20308;-61
2022/07/25 11:06:38;;;;;;;3.27;2.30;;;;;;;25.59;41.77;99957.22;4197311;28;20323;-63
2022/07/25 11:09:22;;;;;;;10.90;3.20;;;;;;;25.14;42.41;99952.88;4201622;28;20625;-61
2022/07/25 11:11:56;;;;;;;3.43;2.70;;;;;;;25.14;43.50;99950.97;4222322;28;21199;-61
2022/07/25 11:14:27;;;;;;;9.37;2.73;;;;;;;25.40;42.60;99948.56;4199811;28;20687;-60
2022/07/25 11:16:54;;;;;;;7.50;3.20;;;;;;;25.44;43.08;99952.44;4197732;28;20255;-61
2022/07/25 11:19:26;;;;;;;4.47;3.00;;;;;;;25.40;44.14;99943.97;4195124;28;20247;-62
2022/07/25 11:21:55;;;;;;;3.83;2.77;;;;;;;25.39;43.21;99938.78;4201486;28;20903;-61